FNBG/BUG METAR and TAF weather

Enter ICAO airport designator
Station Type Date Time Source
FNBG METAR 2019/06/26 14:00 UTC NOAA

FNBG 261400Z 30006KT 9999 FEW015 BKN020 25/18 Q1015


Station Type Date Time Source
FNBG Decoded METAR 2019/06/26 14:00 UTC NOAA

Monbaca Benguela , Angola (FNBG) 12-35S 013-25E 4M
Jun 26, 2019 - 10:00 AM EDT / 2019.06.26 1400 UTC
Wind: from the WNW (300 degrees) at 7 MPH (6 KT):0
Visibility: greater than 7 mile(s):0
Sky conditions: mostly cloudy
Temperature: 77 F (25 C)
Dew Point: 64 F (18 C)
Relative Humidity: 65%
Pressure (altimeter): 29.97 in. Hg (1015 hPa)
ob: FNBG 261400Z 30006KT 9999 FEW015 BKN020 25/18 Q1015
cycle: 14

Station Type Date Time Source
FNBG TAF 2019/06/26 12:00 UTC NOAA

TAF FNBG 261100Z 2612/2624 30009KT CAVOK
BECMG 2622/2624 22005KT 9999 NSC

Example: see airport list